Terminal Aerodrome Forecast
Issued by NWS

Home | Current Version | Previous Version | Text Only | Print | Product List | Glossary On
Versions: 1 2 3 4 5 6 7 8 9 10 11 12 13 14 15 16 17 18 19 20 21 22 23 24 25 26 27 28 29
000
FTUS45 KPIH 211732
TAFSUN
TAF
KSUN 211732Z 2118/2218 32005KT 3SM -SN BKN006 OVC010
     FM211900 16007KT P6SM SCT006 BKN015 OVC030
     FM212100 21008KT P6SM SCT006 SCT030
     FM220100 32004KT P6SM SCT030
     FM221500 16005KT P6SM SCT006 OVC015=

USA.gov is the U.S. government's official web portal to all federal, state and local government web resources and services.